sensor_id;sensor_type;location;lat;lon;timestamp;P1;durP1;ratioP1;P2;durP2;ratioP2
62535;SDS011;63050;47.514;18.920;2023-07-29T00:04:33;3.40;;;1.70;;
62535;SDS011;63050;47.514;18.920;2023-07-29T00:09:34;3.00;;;1.70;;
62535;SDS011;63050;47.514;18.920;2023-07-29T00:14:35;3.20;;;2.10;;
62535;SDS011;63050;47.514;18.920;2023-07-29T00:19:36;2.40;;;1.60;;
62535;SDS011;63050;47.514;18.920;2023-07-29T00:24:36;3.50;;;2.20;;
62535;SDS011;63050;47.514;18.920;2023-07-29T00:29:37;2.50;;;1.50;;
62535;SDS011;63050;47.514;18.920;2023-07-29T00:34:38;1.90;;;1.20;;
62535;SDS011;63050;47.514;18.920;2023-07-29T00:39:39;2.60;;;1.80;;
62535;SDS011;63050;47.514;18.920;2023-07-29T00:44:40;2.70;;;1.60;;
62535;SDS011;63050;47.514;18.920;2023-07-29T00:49:42;3.20;;;1.60;;
62535;SDS011;63050;47.514;18.920;2023-07-29T00:54:44;3.40;;;1.70;;
62535;SDS011;63050;47.514;18.920;2023-07-29T00:59:44;2.70;;;1.60;;
62535;SDS011;63050;47.514;18.920;2023-07-29T01:04:45;2.90;;;1.90;;
62535;SDS011;63050;47.514;18.920;2023-07-29T01:09:51;3.10;;;1.50;;
62535;SDS011;63050;47.514;18.920;2023-07-29T01:14:59;3.10;;;1.60;;
62535;SDS011;63050;47.514;18.920;2023-07-29T01:25:09;2.90;;;1.80;;
62535;SDS011;63050;47.514;18.920;2023-07-29T01:30:10;2.90;;;2.00;;
62535;SDS011;63050;47.514;18.920;2023-07-29T01:40:12;2.60;;;1.80;;
62535;SDS011;63050;47.514;18.920;2023-07-29T01:45:13;2.90;;;1.80;;
62535;SDS011;63050;47.514;18.920;2023-07-29T01:50:14;3.40;;;2.10;;
62535;SDS011;63050;47.514;18.920;2023-07-29T01:55:15;2.90;;;1.90;;
62535;SDS011;63050;47.514;18.920;2023-07-29T02:00:15;3.10;;;1.80;;
62535;SDS011;63050;47.514;18.920;2023-07-29T02:05:18;2.80;;;2.10;;
62535;SDS011;63050;47.514;18.920;2023-07-29T02:10:19;2.40;;;1.50;;
62535;SDS011;63050;47.514;18.920;2023-07-29T02:15:20;2.60;;;1.90;;
62535;SDS011;63050;47.514;18.920;2023-07-29T02:20:21;3.00;;;2.00;;
62535;SDS011;63050;47.514;18.920;2023-07-29T02:25:22;3.50;;;2.10;;
62535;SDS011;63050;47.514;18.920;2023-07-29T02:30:23;2.90;;;1.70;;
62535;SDS011;63050;47.514;18.920;2023-07-29T02:35:24;3.00;;;2.00;;
62535;SDS011;63050;47.514;18.920;2023-07-29T02:40:25;3.80;;;2.10;;
62535;SDS011;63050;47.514;18.920;2023-07-29T02:45:27;4.70;;;2.20;;
62535;SDS011;63050;47.514;18.920;2023-07-29T02:50:28;3.20;;;2.40;;
62535;SDS011;63050;47.514;18.920;2023-07-29T02:55:28;3.20;;;2.00;;
62535;SDS011;63050;47.514;18.920;2023-07-29T03:00:31;3.00;;;2.00;;
62535;SDS011;63050;47.514;18.920;2023-07-29T03:05:32;6.40;;;2.10;;
62535;SDS011;63050;47.514;18.920;2023-07-29T03:10:34;3.60;;;2.10;;
62535;SDS011;63050;47.514;18.920;2023-07-29T03:15:35;3.80;;;2.10;;
62535;SDS011;63050;47.514;18.920;2023-07-29T03:20:36;2.50;;;1.90;;
62535;SDS011;63050;47.514;18.920;2023-07-29T03:25:37;3.70;;;2.20;;
62535;SDS011;63050;47.514;18.920;2023-07-29T03:30:38;4.30;;;2.30;;
62535;SDS011;63050;47.514;18.920;2023-07-29T03:35:39;4.50;;;2.40;;
62535;SDS011;63050;47.514;18.920;2023-07-29T03:40:40;3.70;;;2.20;;
62535;SDS011;63050;47.514;18.920;2023-07-29T03:45:41;2.70;;;2.00;;
62535;SDS011;63050;47.514;18.920;2023-07-29T03:50:42;3.80;;;2.20;;
62535;SDS011;63050;47.514;18.920;2023-07-29T03:55:43;3.10;;;2.10;;
62535;SDS011;63050;47.514;18.920;2023-07-29T04:00:44;3.20;;;2.60;;
62535;SDS011;63050;47.514;18.920;2023-07-29T04:05:45;5.20;;;2.80;;
62535;SDS011;63050;47.514;18.920;2023-07-29T04:10:46;2.60;;;1.90;;
62535;SDS011;63050;47.514;18.920;2023-07-29T04:15:47;3.60;;;2.00;;
62535;SDS011;63050;47.514;18.920;2023-07-29T04:20:48;3.30;;;2.30;;
62535;SDS011;63050;47.514;18.920;2023-07-29T04:25:48;5.60;;;2.70;;
62535;SDS011;63050;47.514;18.920;2023-07-29T04:30:50;2.70;;;2.30;;
62535;SDS011;63050;47.514;18.920;2023-07-29T04:35:51;3.50;;;2.60;;
62535;SDS011;63050;47.514;18.920;2023-07-29T04:40:52;5.10;;;2.20;;
62535;SDS011;63050;47.514;18.920;2023-07-29T04:45:53;3.50;;;2.40;;
62535;SDS011;63050;47.514;18.920;2023-07-29T04:50:54;3.30;;;2.10;;
62535;SDS011;63050;47.514;18.920;2023-07-29T04:55:55;3.70;;;2.40;;
62535;SDS011;63050;47.514;18.920;2023-07-29T05:00:56;3.80;;;2.30;;
62535;SDS011;63050;47.514;18.920;2023-07-29T05:05:57;4.20;;;2.30;;
62535;SDS011;63050;47.514;18.920;2023-07-29T05:11:00;4.70;;;2.10;;
62535;SDS011;63050;47.514;18.920;2023-07-29T05:16:01;3.70;;;2.00;;
62535;SDS011;63050;47.514;18.920;2023-07-29T05:21:02;3.20;;;2.40;;
62535;SDS011;63050;47.514;18.920;2023-07-29T05:26:03;2.70;;;1.90;;
62535;SDS011;63050;47.514;18.920;2023-07-29T05:31:04;3.30;;;2.30;;
62535;SDS011;63050;47.514;18.920;2023-07-29T05:36:05;3.60;;;2.20;;
62535;SDS011;63050;47.514;18.920;2023-07-29T05:41:06;3.50;;;2.00;;
62535;SDS011;63050;47.514;18.920;2023-07-29T05:46:06;3.00;;;1.90;;
62535;SDS011;63050;47.514;18.920;2023-07-29T05:51:07;3.00;;;2.30;;
62535;SDS011;63050;47.514;18.920;2023-07-29T05:56:08;3.20;;;2.00;;
62535;SDS011;63050;47.514;18.920;2023-07-29T06:01:10;3.60;;;1.90;;
62535;SDS011;63050;47.514;18.920;2023-07-29T06:06:12;3.20;;;2.20;;
62535;SDS011;63050;47.514;18.920;2023-07-29T06:11:13;3.00;;;2.20;;
62535;SDS011;63050;47.514;18.920;2023-07-29T06:16:14;3.90;;;2.30;;
62535;SDS011;63050;47.514;18.920;2023-07-29T06:21:15;3.30;;;2.20;;
62535;SDS011;63050;47.514;18.920;2023-07-29T06:26:18;2.90;;;2.10;;
62535;SDS011;63050;47.514;18.920;2023-07-29T06:31:19;2.80;;;1.90;;
62535;SDS011;63050;47.514;18.920;2023-07-29T06:36:21;3.80;;;1.90;;
62535;SDS011;63050;47.514;18.920;2023-07-29T06:41:22;2.40;;;1.80;;
62535;SDS011;63050;47.514;18.920;2023-07-29T06:46:24;2.80;;;1.70;;
62535;SDS011;63050;47.514;18.920;2023-07-29T06:51:25;2.90;;;1.80;;
62535;SDS011;63050;47.514;18.920;2023-07-29T06:56:26;5.10;;;2.40;;
62535;SDS011;63050;47.514;18.920;2023-07-29T07:01:27;4.20;;;1.70;;
62535;SDS011;63050;47.514;18.920;2023-07-29T07:06:28;2.70;;;1.90;;
62535;SDS011;63050;47.514;18.920;2023-07-29T07:11:29;3.30;;;1.80;;
62535;SDS011;63050;47.514;18.920;2023-07-29T07:16:29;3.50;;;2.10;;
62535;SDS011;63050;47.514;18.920;2023-07-29T07:21:30;3.60;;;1.80;;
62535;SDS011;63050;47.514;18.920;2023-07-29T07:26:33;3.10;;;1.60;;
62535;SDS011;63050;47.514;18.920;2023-07-29T07:31:34;2.90;;;1.80;;
62535;SDS011;63050;47.514;18.920;2023-07-29T07:36:35;4.60;;;1.90;;
62535;SDS011;63050;47.514;18.920;2023-07-29T07:41:36;2.70;;;1.70;;
62535;SDS011;63050;47.514;18.920;2023-07-29T07:46:37;2.80;;;1.70;;
62535;SDS011;63050;47.514;18.920;2023-07-29T07:51:38;3.90;;;1.40;;
62535;SDS011;63050;47.514;18.920;2023-07-29T07:56:39;2.40;;;1.90;;
62535;SDS011;63050;47.514;18.920;2023-07-29T08:01:40;2.70;;;1.60;;
62535;SDS011;63050;47.514;18.920;2023-07-29T08:06:41;2.40;;;1.80;;
62535;SDS011;63050;47.514;18.920;2023-07-29T08:11:42;4.00;;;1.80;;
62535;SDS011;63050;47.514;18.920;2023-07-29T08:16:43;3.20;;;1.70;;
62535;SDS011;63050;47.514;18.920;2023-07-29T08:21:43;2.70;;;1.70;;
62535;SDS011;63050;47.514;18.920;2023-07-29T08:26:44;2.30;;;1.60;;
62535;SDS011;63050;47.514;18.920;2023-07-29T08:31:46;2.50;;;1.50;;
62535;SDS011;63050;47.514;18.920;2023-07-29T08:36:47;2.50;;;1.50;;
62535;SDS011;63050;47.514;18.920;2023-07-29T08:41:54;2.10;;;1.60;;
62535;SDS011;63050;47.514;18.920;2023-07-29T08:47:06;2.40;;;1.50;;
62535;SDS011;63050;47.514;18.920;2023-07-29T08:52:08;1.50;;;1.10;;
62535;SDS011;63050;47.514;18.920;2023-07-29T08:57:10;3.30;;;1.40;;
62535;SDS011;63050;47.514;18.920;2023-07-29T09:02:10;2.30;;;1.00;;
62535;SDS011;63050;47.514;18.920;2023-07-29T09:07:11;2.20;;;1.10;;
62535;SDS011;63050;47.514;18.920;2023-07-29T09:12:13;3.20;;;1.30;;
62535;SDS011;63050;47.514;18.920;2023-07-29T09:17:13;2.30;;;1.50;;
62535;SDS011;63050;47.514;18.920;2023-07-29T09:22:18;1.50;;;0.90;;
62535;SDS011;63050;47.514;18.920;2023-07-29T09:27:26;1.50;;;1.00;;
62535;SDS011;63050;47.514;18.920;2023-07-29T09:32:27;2.50;;;1.00;;
62535;SDS011;63050;47.514;18.920;2023-07-29T09:37:28;2.00;;;1.00;;
62535;SDS011;63050;47.514;18.920;2023-07-29T09:42:29;1.70;;;0.90;;
62535;SDS011;63050;47.514;18.920;2023-07-29T09:47:29;1.40;;;0.80;;
62535;SDS011;63050;47.514;18.920;2023-07-29T09:52:30;1.80;;;0.90;;
62535;SDS011;63050;47.514;18.920;2023-07-29T09:57:31;2.00;;;1.20;;
62535;SDS011;63050;47.514;18.920;2023-07-29T10:02:32;2.60;;;1.00;;
62535;SDS011;63050;47.514;18.920;2023-07-29T10:07:34;1.80;;;1.00;;
62535;SDS011;63050;47.514;18.920;2023-07-29T10:12:39;3.00;;;1.10;;
62535;SDS011;63050;47.514;18.920;2023-07-29T10:17:43;3.20;;;1.00;;
62535;SDS011;63050;47.514;18.920;2023-07-29T10:22:45;1.80;;;1.00;;
62535;SDS011;63050;47.514;18.920;2023-07-29T10:27:49;2.10;;;1.10;;
62535;SDS011;63050;47.514;18.920;2023-07-29T10:32:54;1.60;;;1.00;;
62535;SDS011;63050;47.514;18.920;2023-07-29T10:37:59;2.20;;;1.30;;
62535;SDS011;63050;47.514;18.920;2023-07-29T10:43:10;2.20;;;1.30;;
62535;SDS011;63050;47.514;18.920;2023-07-29T10:48:12;3.00;;;1.40;;
62535;SDS011;63050;47.514;18.920;2023-07-29T10:53:15;2.20;;;1.20;;
62535;SDS011;63050;47.514;18.920;2023-07-29T10:58:16;2.40;;;1.20;;
62535;SDS011;63050;47.514;18.920;2023-07-29T11:03:18;1.70;;;1.10;;
62535;SDS011;63050;47.514;18.920;2023-07-29T11:08:19;1.80;;;1.20;;
62535;SDS011;63050;47.514;18.920;2023-07-29T11:13:30;2.00;;;1.40;;
62535;SDS011;63050;47.514;18.920;2023-07-29T11:18:32;2.90;;;1.20;;
62535;SDS011;63050;47.514;18.920;2023-07-29T11:23:36;3.00;;;1.20;;
62535;SDS011;63050;47.514;18.920;2023-07-29T11:28:37;1.90;;;1.20;;
62535;SDS011;63050;47.514;18.920;2023-07-29T11:33:39;2.80;;;1.10;;
62535;SDS011;63050;47.514;18.920;2023-07-29T11:38:40;2.50;;;1.20;;
62535;SDS011;63050;47.514;18.920;2023-07-29T11:43:41;1.90;;;1.30;;
62535;SDS011;63050;47.514;18.920;2023-07-29T11:48:44;2.60;;;1.00;;
62535;SDS011;63050;47.514;18.920;2023-07-29T11:53:45;2.60;;;1.40;;
62535;SDS011;63050;47.514;18.920;2023-07-29T11:58:46;1.70;;;1.10;;
62535;SDS011;63050;47.514;18.920;2023-07-29T12:03:47;2.00;;;1.20;;
62535;SDS011;63050;47.514;18.920;2023-07-29T12:08:48;1.50;;;1.00;;
62535;SDS011;63050;47.514;18.920;2023-07-29T12:13:49;1.70;;;1.10;;
62535;SDS011;63050;47.514;18.920;2023-07-29T12:18:50;1.90;;;1.30;;
62535;SDS011;63050;47.514;18.920;2023-07-29T12:23:51;2.20;;;1.20;;
62535;SDS011;63050;47.514;18.920;2023-07-29T12:28:52;2.30;;;1.20;;
62535;SDS011;63050;47.514;18.920;2023-07-29T12:33:56;2.40;;;1.50;;
62535;SDS011;63050;47.514;18.920;2023-07-29T12:38:59;2.30;;;1.40;;
62535;SDS011;63050;47.514;18.920;2023-07-29T12:44:00;5.20;;;1.60;;
62535;SDS011;63050;47.514;18.920;2023-07-29T12:49:00;2.50;;;1.30;;
62535;SDS011;63050;47.514;18.920;2023-07-29T12:54:01;2.20;;;1.30;;
62535;SDS011;63050;47.514;18.920;2023-07-29T12:59:04;2.70;;;1.40;;
62535;SDS011;63050;47.514;18.920;2023-07-29T13:04:05;2.10;;;1.20;;
62535;SDS011;63050;47.514;18.920;2023-07-29T13:09:06;2.00;;;1.20;;
62535;SDS011;63050;47.514;18.920;2023-07-29T13:14:08;2.20;;;1.40;;
62535;SDS011;63050;47.514;18.920;2023-07-29T13:19:08;3.50;;;1.50;;
62535;SDS011;63050;47.514;18.920;2023-07-29T13:24:09;1.50;;;1.10;;
62535;SDS011;63050;47.514;18.920;2023-07-29T13:29:10;2.20;;;1.40;;
62535;SDS011;63050;47.514;18.920;2023-07-29T13:34:11;2.20;;;1.30;;
62535;SDS011;63050;47.514;18.920;2023-07-29T13:39:12;1.70;;;1.10;;
62535;SDS011;63050;47.514;18.920;2023-07-29T13:44:13;2.20;;;1.60;;
62535;SDS011;63050;47.514;18.920;2023-07-29T13:49:13;2.20;;;1.60;;
62535;SDS011;63050;47.514;18.920;2023-07-29T13:54:14;1.80;;;1.00;;
62535;SDS011;63050;47.514;18.920;2023-07-29T13:59:15;2.20;;;1.60;;
62535;SDS011;63050;47.514;18.920;2023-07-29T14:04:16;1.70;;;1.10;;
62535;SDS011;63050;47.514;18.920;2023-07-29T14:09:17;2.30;;;1.00;;
62535;SDS011;63050;47.514;18.920;2023-07-29T14:14:18;1.60;;;1.10;;
62535;SDS011;63050;47.514;18.920;2023-07-29T14:19:19;2.50;;;1.20;;
62535;SDS011;63050;47.514;18.920;2023-07-29T14:24:20;2.90;;;1.10;;
62535;SDS011;63050;47.514;18.920;2023-07-29T14:29:22;1.50;;;1.10;;
62535;SDS011;63050;47.514;18.920;2023-07-29T14:34:23;1.90;;;1.30;;
62535;SDS011;63050;47.514;18.920;2023-07-29T14:39:23;2.20;;;1.20;;
62535;SDS011;63050;47.514;18.920;2023-07-29T14:44:24;2.00;;;1.30;;
62535;SDS011;63050;47.514;18.920;2023-07-29T14:49:25;2.40;;;1.10;;
62535;SDS011;63050;47.514;18.920;2023-07-29T14:54:26;2.30;;;1.30;;
62535;SDS011;63050;47.514;18.920;2023-07-29T14:59:27;2.20;;;1.10;;
62535;SDS011;63050;47.514;18.920;2023-07-29T15:04:28;2.00;;;1.30;;
62535;SDS011;63050;47.514;18.920;2023-07-29T15:09:30;2.30;;;1.60;;
62535;SDS011;63050;47.514;18.920;2023-07-29T15:14:30;2.10;;;1.30;;
62535;SDS011;63050;47.514;18.920;2023-07-29T15:19:31;2.40;;;1.20;;
62535;SDS011;63050;47.514;18.920;2023-07-29T15:24:32;2.70;;;1.30;;
62535;SDS011;63050;47.514;18.920;2023-07-29T15:29:33;2.60;;;1.70;;
62535;SDS011;63050;47.514;18.920;2023-07-29T15:34:34;2.50;;;1.40;;
62535;SDS011;63050;47.514;18.920;2023-07-29T15:39:35;3.00;;;1.50;;
62535;SDS011;63050;47.514;18.920;2023-07-29T15:44:36;2.60;;;1.20;;
62535;SDS011;63050;47.514;18.920;2023-07-29T15:49:38;4.40;;;1.50;;
62535;SDS011;63050;47.514;18.920;2023-07-29T15:54:39;5.40;;;1.60;;
62535;SDS011;63050;47.514;18.920;2023-07-29T15:59:40;3.10;;;1.80;;
62535;SDS011;63050;47.514;18.920;2023-07-29T16:04:40;4.60;;;1.50;;
62535;SDS011;63050;47.514;18.920;2023-07-29T16:09:41;3.10;;;1.80;;
62535;SDS011;63050;47.514;18.920;2023-07-29T16:14:42;3.50;;;1.30;;
62535;SDS011;63050;47.514;18.920;2023-07-29T16:25:13;3.60;;;1.40;;
62535;SDS011;63050;47.514;18.920;2023-07-29T16:30:14;3.20;;;1.50;;
62535;SDS011;63050;47.514;18.920;2023-07-29T16:35:15;3.50;;;1.60;;
62535;SDS011;63050;47.514;18.920;2023-07-29T16:40:16;4.10;;;1.50;;
62535;SDS011;63050;47.514;18.920;2023-07-29T16:45:17;6.50;;;1.70;;
62535;SDS011;63050;47.514;18.920;2023-07-29T16:50:18;3.40;;;1.30;;
62535;SDS011;63050;47.514;18.920;2023-07-29T16:55:19;4.10;;;1.60;;
62535;SDS011;63050;47.514;18.920;2023-07-29T17:00:22;3.10;;;1.60;;
62535;SDS011;63050;47.514;18.920;2023-07-29T17:05:23;2.90;;;1.40;;
62535;SDS011;63050;47.514;18.920;2023-07-29T17:10:24;2.30;;;1.20;;
62535;SDS011;63050;47.514;18.920;2023-07-29T17:15:25;3.00;;;1.30;;
62535;SDS011;63050;47.514;18.920;2023-07-29T17:20:26;2.80;;;1.20;;
62535;SDS011;63050;47.514;18.920;2023-07-29T17:25:27;3.40;;;1.00;;
62535;SDS011;63050;47.514;18.920;2023-07-29T17:30:30;2.80;;;1.40;;
62535;SDS011;63050;47.514;18.920;2023-07-29T17:35:32;2.70;;;1.20;;
62535;SDS011;63050;47.514;18.920;2023-07-29T17:40:33;3.30;;;1.00;;
62535;SDS011;63050;47.514;18.920;2023-07-29T17:45:33;2.40;;;1.10;;
62535;SDS011;63050;47.514;18.920;2023-07-29T17:50:34;3.40;;;1.50;;
62535;SDS011;63050;47.514;18.920;2023-07-29T17:55:38;4.60;;;2.60;;
62535;SDS011;63050;47.514;18.920;2023-07-29T18:00:39;3.10;;;2.10;;
62535;SDS011;63050;47.514;18.920;2023-07-29T18:05:40;2.80;;;1.20;;
62535;SDS011;63050;47.514;18.920;2023-07-29T18:10:41;2.40;;;1.40;;
62535;SDS011;63050;47.514;18.920;2023-07-29T18:15:43;3.20;;;1.20;;
62535;SDS011;63050;47.514;18.920;2023-07-29T18:20:43;4.70;;;1.40;;
62535;SDS011;63050;47.514;18.920;2023-07-29T18:25:46;3.20;;;1.40;;
62535;SDS011;63050;47.514;18.920;2023-07-29T18:30:49;2.90;;;1.40;;
62535;SDS011;63050;47.514;18.920;2023-07-29T18:35:50;2.20;;;1.40;;
62535;SDS011;63050;47.514;18.920;2023-07-29T18:40:51;2.60;;;1.20;;
62535;SDS011;63050;47.514;18.920;2023-07-29T18:45:52;2.10;;;1.20;;
62535;SDS011;63050;47.514;18.920;2023-07-29T18:50:55;1.90;;;1.20;;
62535;SDS011;63050;47.514;18.920;2023-07-29T18:55:56;3.00;;;1.40;;
62535;SDS011;63050;47.514;18.920;2023-07-29T19:00:57;3.90;;;1.60;;
62535;SDS011;63050;47.514;18.920;2023-07-29T19:05:59;4.10;;;1.50;;
62535;SDS011;63050;47.514;18.920;2023-07-29T19:11:01;2.10;;;1.30;;
62535;SDS011;63050;47.514;18.920;2023-07-29T19:16:03;3.30;;;1.40;;
62535;SDS011;63050;47.514;18.920;2023-07-29T19:21:07;4.70;;;2.80;;
62535;SDS011;63050;47.514;18.920;2023-07-29T19:26:10;4.40;;;2.90;;
62535;SDS011;63050;47.514;18.920;2023-07-29T19:31:11;5.10;;;2.50;;
62535;SDS011;63050;47.514;18.920;2023-07-29T19:36:13;4.40;;;3.00;;
62535;SDS011;63050;47.514;18.920;2023-07-29T19:41:14;3.00;;;1.90;;
62535;SDS011;63050;47.514;18.920;2023-07-29T19:46:15;3.40;;;1.70;;
62535;SDS011;63050;47.514;18.920;2023-07-29T19:51:17;3.10;;;1.40;;
62535;SDS011;63050;47.514;18.920;2023-07-29T19:56:21;4.50;;;1.70;;
62535;SDS011;63050;47.514;18.920;2023-07-29T20:01:22;3.00;;;1.80;;
62535;SDS011;63050;47.514;18.920;2023-07-29T20:06:24;2.60;;;1.70;;
62535;SDS011;63050;47.514;18.920;2023-07-29T20:11:26;2.80;;;2.00;;
62535;SDS011;63050;47.514;18.920;2023-07-29T20:16:27;2.70;;;1.80;;
62535;SDS011;63050;47.514;18.920;2023-07-29T20:21:28;2.60;;;1.70;;
62535;SDS011;63050;47.514;18.920;2023-07-29T20:26:29;3.50;;;1.70;;
62535;SDS011;63050;47.514;18.920;2023-07-29T20:31:32;3.00;;;1.60;;
62535;SDS011;63050;47.514;18.920;2023-07-29T20:36:35;2.60;;;1.50;;
62535;SDS011;63050;47.514;18.920;2023-07-29T20:41:37;2.90;;;1.70;;
62535;SDS011;63050;47.514;18.920;2023-07-29T20:46:39;2.10;;;1.40;;
62535;SDS011;63050;47.514;18.920;2023-07-29T20:51:40;2.30;;;1.50;;
62535;SDS011;63050;47.514;18.920;2023-07-29T20:56:42;3.10;;;1.40;;
62535;SDS011;63050;47.514;18.920;2023-07-29T21:01:43;1.70;;;1.00;;
62535;SDS011;63050;47.514;18.920;2023-07-29T21:06:44;3.10;;;1.20;;
62535;SDS011;63050;47.514;18.920;2023-07-29T21:11:45;2.40;;;1.10;;
62535;SDS011;63050;47.514;18.920;2023-07-29T21:16:46;2.40;;;1.30;;
62535;SDS011;63050;47.514;18.920;2023-07-29T21:21:47;3.90;;;1.40;;
62535;SDS011;63050;47.514;18.920;2023-07-29T21:26:48;1.80;;;1.20;;
62535;SDS011;63050;47.514;18.920;2023-07-29T21:31:49;2.30;;;1.30;;
62535;SDS011;63050;47.514;18.920;2023-07-29T21:36:49;4.50;;;1.60;;
62535;SDS011;63050;47.514;18.920;2023-07-29T21:41:50;3.20;;;1.50;;
62535;SDS011;63050;47.514;18.920;2023-07-29T21:46:51;1.90;;;1.20;;
62535;SDS011;63050;47.514;18.920;2023-07-29T21:51:52;3.10;;;1.60;;
62535;SDS011;63050;47.514;18.920;2023-07-29T21:56:52;3.00;;;1.60;;
62535;SDS011;63050;47.514;18.920;2023-07-29T22:01:53;3.20;;;1.50;;
62535;SDS011;63050;47.514;18.920;2023-07-29T22:06:54;2.70;;;1.50;;
62535;SDS011;63050;47.514;18.920;2023-07-29T22:11:55;3.50;;;1.40;;
62535;SDS011;63050;47.514;18.920;2023-07-29T22:16:56;2.10;;;1.20;;
62535;SDS011;63050;47.514;18.920;2023-07-29T22:21:57;2.50;;;1.40;;
62535;SDS011;63050;47.514;18.920;2023-07-29T22:26:58;2.30;;;1.50;;
62535;SDS011;63050;47.514;18.920;2023-07-29T22:32:00;3.50;;;1.40;;
62535;SDS011;63050;47.514;18.920;2023-07-29T22:37:01;2.80;;;1.30;;
62535;SDS011;63050;47.514;18.920;2023-07-29T22:42:02;4.10;;;1.60;;
62535;SDS011;63050;47.514;18.920;2023-07-29T22:47:03;2.90;;;1.50;;
62535;SDS011;63050;47.514;18.920;2023-07-29T22:52:04;2.30;;;1.30;;
62535;SDS011;63050;47.514;18.920;2023-07-29T22:57:06;3.30;;;1.70;;
62535;SDS011;63050;47.514;18.920;2023-07-29T23:02:07;3.30;;;1.50;;
62535;SDS011;63050;47.514;18.920;2023-07-29T23:07:08;2.20;;;1.40;;
62535;SDS011;63050;47.514;18.920;2023-07-29T23:12:08;3.30;;;1.40;;
62535;SDS011;63050;47.514;18.920;2023-07-29T23:17:09;2.80;;;1.70;;
62535;SDS011;63050;47.514;18.920;2023-07-29T23:22:10;3.50;;;1.50;;
62535;SDS011;63050;47.514;18.920;2023-07-29T23:27:11;2.10;;;1.40;;
62535;SDS011;63050;47.514;18.920;2023-07-29T23:32:12;3.40;;;1.40;;
62535;SDS011;63050;47.514;18.920;2023-07-29T23:37:13;3.00;;;1.60;;
62535;SDS011;63050;47.514;18.920;2023-07-29T23:42:14;3.40;;;1.80;;
62535;SDS011;63050;47.514;18.920;2023-07-29T23:47:15;3.50;;;1.40;;
62535;SDS011;63050;47.514;18.920;2023-07-29T23:52:15;2.50;;;1.50;;
62535;SDS011;63050;47.514;18.920;2023-07-29T23:57:16;3.40;;;1.30;;
